Time;durP1;ratioP1;P1;durP2;ratioP2;P2;SDS_P1;SDS_P2;PMS_P1;PMS_P2;Temp;Humidity;BMP_temperature;BMP_pressure;BME280_temperature;BME280_humidity;BME280_pressure;Samples;Min_cycle;Max_cycle;Signal;HPM_P1;HPM_P2
2021/09/29 00:02:04;;;;;;;5.28;2.08;;;12.70;99.90;;;;;;5027272;28;20419;-78
2021/09/29 00:04:31;;;;;;;8.45;2.20;;;12.70;99.90;;;;;;5082071;28;20043;-78
2021/09/29 00:06:57;;;;;;;6.30;1.88;;;12.70;99.90;;;;;;5047050;28;20055;-77
2021/09/29 00:09:24;;;;;;;5.93;1.52;;;12.70;99.90;;;;;;5034472;28;20032;-80
2021/09/29 00:11:50;;;;;;;7.53;2.08;;;12.70;99.90;;;;;;5035133;28;20052;-80
2021/09/29 00:14:16;;;;;;;5.90;2.30;;;12.70;99.90;;;;;;5027116;28;20044;-79
2021/09/29 00:16:43;;;;;;;6.82;1.58;;;12.80;99.90;;;;;;5048556;28;20036;-79
2021/09/29 00:19:09;;;;;;;7.40;1.88;;;12.70;99.90;;;;;;5047212;28;20047;-79
2021/09/29 00:21:36;;;;;;;7.28;1.77;;;12.70;99.90;;;;;;5061525;28;20032;-79
2021/09/29 00:24:02;;;;;;;5.00;1.58;;;12.80;99.90;;;;;;5031566;28;20045;-80
2021/09/29 00:26:29;;;;;;;5.38;1.40;;;12.80;99.90;;;;;;5028107;28;20053;-80
2021/09/29 00:28:55;;;;;;;6.80;1.48;;;12.80;99.90;;;;;;5062447;28;20036;-79
2021/09/29 00:34:28;;;;;;;7.00;1.92;;;12.90;99.90;;;;;;5085313;28;20067;-80
2021/09/29 00:36:45;;;;;;;5.60;1.58;;;12.90;99.90;;;;;;5063521;28;20044;-79
2021/09/29 00:39:13;;;;;;;8.90;2.20;;;12.90;99.90;;;;;;5044641;28;20047;-80
2021/09/29 00:41:41;;;;;;;4.60;1.98;;;12.90;99.90;;;;;;5049303;28;20477;-79
2021/09/29 00:44:08;;;;;;;5.97;1.70;;;13.00;99.90;;;;;;5021126;28;20067;-79
2021/09/29 00:46:34;;;;;;;7.07;1.65;;;13.00;99.90;;;;;;5028439;28;20412;-79
2021/09/29 00:49:01;;;;;;;4.95;2.03;;;13.10;99.90;;;;;;5036286;28;20040;-79
2021/09/29 00:51:27;;;;;;;7.97;2.05;;;13.10;99.90;;;;;;5017381;28;20060;-79
2021/09/29 00:53:55;;;;;;;6.50;1.58;;;13.10;99.90;;;;;;5007055;28;20052;-79
2021/09/29 00:56:22;;;;;;;4.47;1.55;;;13.10;99.90;;;;;;5049753;28;20052;-79
2021/09/29 00:58:49;;;;;;;6.18;1.92;;;13.10;99.90;;;;;;5061906;28;20048;-80
2021/09/29 01:01:16;;;;;;;6.22;1.88;;;13.10;99.90;;;;;;5046913;28;20052;-80
2021/09/29 01:03:45;;;;;;;5.85;1.88;;;13.10;99.90;;;;;;5032375;28;20052;-80
2021/09/29 01:06:23;;;;;;;3.30;1.40;;;13.00;99.90;;;;;;5042961;28;20055;-80
2021/09/29 01:09:02;;;;;;;6.82;1.95;;;13.00;99.90;;;;;;5043918;28;20041;-80
2021/09/29 01:11:51;;;;;;;3.92;1.48;;;13.00;99.90;;;;;;5066957;28;20032;-80
2021/09/29 01:14:25;;;;;;;5.03;1.55;;;13.00;99.90;;;;;;5039924;28;20059;-80
2021/09/29 01:16:55;;;;;;;5.43;1.70;;;13.00;99.90;;;;;;5035134;28;20040;-80
2021/09/29 01:19:51;;;;;;;6.50;1.77;;;13.10;99.90;;;;;;5069332;28;20055;-80
2021/09/29 01:22:52;;;;;;;5.20;2.25;;;13.10;99.90;;;;;;5042368;28;20054;-80
2021/09/29 01:25:50;;;;;;;4.72;1.83;;;13.10;99.90;;;;;;5035137;28;20032;-80
2021/09/29 01:28:20;;;;;;;7.00;2.55;;;13.10;99.90;;;;;;5045408;28;20063;-80
2021/09/29 01:30:47;;;;;;;5.43;2.55;;;13.10;99.90;;;;;;5058509;28;20028;-81
2021/09/29 01:33:16;;;;;;;6.53;2.03;;;13.10;99.90;;;;;;5016975;28;20036;-80
2021/09/29 01:35:43;;;;;;;10.85;3.20;;;13.10;99.90;;;;;;5026939;28;20063;-80
2021/09/29 01:38:10;;;;;;;8.50;3.22;;;13.00;99.90;;;;;;5027459;28;20055;-80
2021/09/29 01:40:36;;;;;;;6.05;2.83;;;13.00;99.90;;;;;;5044888;28;20067;-80
2021/09/29 01:43:03;;;;;;;6.15;3.10;;;12.90;99.90;;;;;;5031605;28;20052;-80
2021/09/29 01:45:29;;;;;;;6.32;2.53;;;12.90;99.90;;;;;;5028172;28;20036;-81
2021/09/29 01:47:56;;;;;;;5.43;2.70;;;12.90;99.90;;;;;;5041569;28;20769;-80
2021/09/29 01:50:26;;;;;;;6.68;3.22;;;12.80;99.90;;;;;;5032984;28;20033;-80
2021/09/29 01:52:56;;;;;;;7.75;3.13;;;12.80;99.90;;;;;;5045514;28;20047;-80
2021/09/29 01:55:23;;;;;;;4.47;2.63;;;12.80;99.90;;;;;;5031769;28;20067;-80
2021/09/29 01:57:52;;;;;;;7.53;2.70;;;12.80;99.90;;;;;;5027675;28;20052;-80
2021/09/29 02:00:19;;;;;;;7.55;3.47;;;12.70;99.90;;;;;;5025799;28;20048;-80
2021/09/29 02:02:46;;;;;;;6.45;3.13;;;12.70;99.90;;;;;;5047663;28;20047;-80
2021/09/29 02:05:13;;;;;;;6.13;2.83;;;12.70;99.90;;;;;;5030843;28;20036;-80
2021/09/29 02:07:41;;;;;;;8.73;2.85;;;12.70;99.90;;;;;;5025855;28;20384;-80
2021/09/29 02:10:09;;;;;;;6.72;2.47;;;12.60;99.90;;;;;;5027539;28;20055;-80
2021/09/29 02:12:35;;;;;;;9.55;3.00;;;12.60;99.90;;;;;;5028988;28;20059;-80
2021/09/29 02:15:05;;;;;;;5.93;2.63;;;12.60;99.90;;;;;;5026441;28;20603;-80
2021/09/29 02:17:31;;;;;;;9.23;3.30;;;12.60;99.90;;;;;;5040534;28;20525;-80
2021/09/29 02:19:57;;;;;;;5.20;2.78;;;12.50;99.90;;;;;;5081697;28;20035;-80
2021/09/29 02:22:24;;;;;;;5.07;2.67;;;12.50;99.90;;;;;;5047868;28;20394;-80
2021/09/29 02:24:51;;;;;;;7.93;3.17;;;12.50;99.90;;;;;;5019080;28;20497;-80
2021/09/29 02:27:17;;;;;;;4.40;2.95;;;12.50;99.90;;;;;;5025474;28;20044;-80
2021/09/29 02:29:44;;;;;;;3.47;2.53;;;12.50;99.90;;;;;;5044596;28;20044;-80
2021/09/29 02:32:10;;;;;;;4.00;2.42;;;12.50;99.90;;;;;;5017374;28;20040;-80
2021/09/29 02:34:37;;;;;;;10.50;2.88;;;12.40;99.90;;;;;;5018285;28;20052;-80
2021/09/29 02:37:03;;;;;;;5.43;2.35;;;12.40;99.90;;;;;;5024190;28;20056;-80
2021/09/29 02:39:30;;;;;;;6.45;2.88;;;12.40;99.90;;;;;;5054112;28;20053;-80
2021/09/29 02:41:56;;;;;;;7.50;3.05;;;12.30;99.90;;;;;;5026670;28;20047;-80
2021/09/29 02:44:23;;;;;;;5.45;2.80;;;12.30;99.90;;;;;;5028633;28;20040;-80
2021/09/29 02:46:49;;;;;;;6.70;2.80;;;12.30;99.90;;;;;;5033997;28;20385;-81
2021/09/29 02:49:16;;;;;;;6.32;3.00;;;12.20;99.90;;;;;;5023747;28;20044;-81
2021/09/29 02:51:42;;;;;;;7.97;3.42;;;12.20;99.90;;;;;;5044484;28;20040;-80
2021/09/29 02:54:09;;;;;;;4.40;2.72;;;12.10;99.90;;;;;;5041021;28;20055;-80
2021/09/29 02:56:35;;;;;;;6.45;3.00;;;12.10;99.90;;;;;;5049738;28;20040;-80
2021/09/29 02:59:02;;;;;;;6.28;3.20;;;12.10;99.90;;;;;;5040394;28;20044;-80
2021/09/29 03:01:29;;;;;;;6.72;3.13;;;12.00;99.90;;;;;;5060150;28;20036;-81
2021/09/29 03:03:55;;;;;;;4.03;2.45;;;12.00;99.90;;;;;;5026105;28;20048;-80
2021/09/29 03:06:21;;;;;;;6.72;3.92;;;12.00;99.90;;;;;;5034858;28;20500;-80
2021/09/29 03:08:48;;;;;;;9.20;3.78;;;12.00;99.90;;;;;;5028112;28;20416;-81
2021/09/29 03:11:14;;;;;;;9.70;3.72;;;12.00;99.90;;;;;;5067098;28;20048;-80
2021/09/29 03:13:41;;;;;;;7.20;3.85;;;11.90;99.90;;;;;;5033529;28;20095;-80
2021/09/29 03:16:07;;;;;;;6.32;3.40;;;12.00;99.90;;;;;;4998282;28;20048;-80
2021/09/29 03:18:34;;;;;;;7.80;3.78;;;11.90;99.90;;;;;;5077132;28;20036;-80
2021/09/29 03:21:00;;;;;;;6.95;3.60;;;11.90;99.90;;;;;;5041231;28;20040;-80
2021/09/29 03:23:26;;;;;;;6.80;3.45;;;11.90;99.90;;;;;;5018489;28;20051;-80
2021/09/29 03:25:53;;;;;;;6.47;2.92;;;11.90;99.90;;;;;;5029907;28;20036;-80
2021/09/29 03:28:19;;;;;;;8.00;3.22;;;11.90;99.90;;;;;;5027798;28;20051;-80
2021/09/29 03:30:46;;;;;;;7.13;2.97;;;11.90;99.90;;;;;;5028148;28;20059;-80
2021/09/29 03:33:12;;;;;;;9.10;3.40;;;11.90;99.90;;;;;;5016483;28;20050;-80
2021/09/29 03:35:39;;;;;;;7.80;3.53;;;11.90;99.90;;;;;;5042677;28;20864;-80
2021/09/29 03:38:05;;;;;;;6.75;2.55;;;11.90;99.90;;;;;;5017105;28;20040;-80
2021/09/29 03:40:32;;;;;;;7.13;3.67;;;11.90;99.90;;;;;;5029130;28;20408;-81
2021/09/29 03:42:58;;;;;;;7.88;2.78;;;11.90;99.90;;;;;;5004944;28;20509;-80
2021/09/29 03:45:25;;;;;;;4.75;2.63;;;12.00;99.90;;;;;;5020983;28;20055;-80
2021/09/29 03:47:52;;;;;;;7.03;3.05;;;12.00;99.90;;;;;;5047952;28;20039;-80
2021/09/29 03:50:20;;;;;;;8.52;3.33;;;12.00;99.90;;;;;;5002816;28;20044;-80
2021/09/29 03:52:46;;;;;;;7.60;3.90;;;12.00;99.90;;;;;;5047747;28;20499;-80
2021/09/29 03:55:13;;;;;;;7.90;3.60;;;12.00;99.90;;;;;;5017298;28;20052;-81
2021/09/29 03:57:39;;;;;;;8.18;4.45;;;12.00;99.90;;;;;;5046369;28;20040;-80
2021/09/29 04:00:11;;;;;;;7.95;3.97;;;11.90;99.90;;;;;;5035295;28;20047;-80
2021/09/29 04:02:40;;;;;;;9.38;3.53;;;11.90;99.90;;;;;;5025350;28;20047;-80
2021/09/29 04:05:07;;;;;;;8.23;3.13;;;11.90;99.90;;;;;;5036496;28;20032;-79
2021/09/29 04:07:34;;;;;;;5.53;2.65;;;12.00;99.90;;;;;;5029544;28;20048;-80
2021/09/29 04:10:01;;;;;;;7.25;3.20;;;12.00;99.90;;;;;;5031609;28;20503;-80
2021/09/29 04:12:27;;;;;;;5.72;2.72;;;12.10;99.90;;;;;;5028601;28;20055;-80
2021/09/29 04:14:55;;;;;;;4.57;2.33;;;12.10;99.90;;;;;;5026424;28;20052;-80
2021/09/29 04:17:21;;;;;;;8.25;3.22;;;12.20;99.90;;;;;;5027977;28;20051;-80
2021/09/29 04:19:47;;;;;;;6.80;2.80;;;12.20;99.90;;;;;;5043240;28;20502;-80
2021/09/29 04:22:14;;;;;;;8.65;3.25;;;12.20;99.90;;;;;;5052276;28;20048;-80
2021/09/29 04:24:44;;;;;;;4.78;2.75;;;12.30;99.90;;;;;;5047029;28;20039;-80
2021/09/29 04:27:11;;;;;;;6.13;3.17;;;12.30;99.90;;;;;;5029751;28;20531;-80
2021/09/29 04:29:38;;;;;;;6.63;2.75;;;12.40;99.90;;;;;;5083941;28;20024;-80
2021/09/29 04:32:06;;;;;;;7.28;2.92;;;12.40;99.90;;;;;;5048509;28;20059;-80
2021/09/29 04:34:32;;;;;;;4.57;2.83;;;12.40;99.90;;;;;;5052902;28;20048;-80
2021/09/29 04:36:59;;;;;;;7.13;3.00;;;12.40;99.90;;;;;;5035238;28;20055;-80
2021/09/29 04:39:25;;;;;;;9.52;2.70;;;12.40;99.90;;;;;;5029496;28;20052;-82
2021/09/29 04:41:52;;;;;;;4.90;3.22;;;12.50;99.90;;;;;;5015595;28;20865;-82
2021/09/29 04:44:18;;;;;;;8.00;3.78;;;12.50;99.90;;;;;;5002507;28;20052;-79
2021/09/29 04:46:45;;;;;;;5.65;3.42;;;12.50;99.90;;;;;;5065475;28;20035;-82
2021/09/29 04:49:11;;;;;;;7.78;2.72;;;12.50;99.90;;;;;;5033149;28;20047;-82
2021/09/29 04:51:38;;;;;;;6.47;3.08;;;12.50;99.90;;;;;;5034752;28;20051;-83
2021/09/29 04:54:05;;;;;;;6.82;3.40;;;12.50;99.90;;;;;;5034060;28;20546;-81
2021/09/29 04:56:32;;;;;;;6.32;3.08;;;12.40;99.90;;;;;;5029889;28;20052;-79
2021/09/29 04:58:58;;;;;;;7.35;3.50;;;12.40;99.90;;;;;;5049580;28;20051;-80
2021/09/29 05:01:28;;;;;;;6.32;3.63;;;12.40;99.90;;;;;;5048400;28;20044;-80
2021/09/29 05:03:55;;;;;;;18.00;11.68;;;12.40;99.90;;;;;;5031326;28;20075;-80
2021/09/29 05:06:22;;;;;;;8.73;5.75;;;12.30;99.90;;;;;;5030193;28;20055;-82
2021/09/29 05:08:51;;;;;;;7.95;4.60;;;12.30;99.90;;;;;;5062738;28;20047;-80
2021/09/29 05:11:28;;;;;;;5.10;3.45;;;12.30;99.90;;;;;;5048708;28;20055;-81
2021/09/29 05:13:55;;;;;;;8.65;3.97;;;12.40;99.90;;;;;;5050264;28;20044;-82
2021/09/29 05:16:22;;;;;;;12.43;4.97;;;12.40;99.90;;;;;;5048829;28;20045;-79
2021/09/29 05:18:48;;;;;;;16.15;9.65;;;12.40;99.90;;;;;;5027825;28;20404;-79
2021/09/29 05:21:14;;;;;;;16.02;9.73;;;12.40;99.90;;;;;;4999664;28;20611;-80
2021/09/29 05:23:41;;;;;;;12.20;6.95;;;12.50;99.90;;;;;;5002393;28;20044;-79
2021/09/29 05:26:07;;;;;;;11.30;6.15;;;12.50;99.90;;;;;;5029517;28;20044;-79
2021/09/29 05:28:41;;;;;;;8.85;4.25;;;12.50;99.90;;;;;;5025158;28;20588;-79
2021/09/29 05:31:07;;;;;;;8.23;4.30;;;12.50;99.90;;;;;;5030241;28;20040;-79
2021/09/29 05:33:33;;;;;;;6.70;3.13;;;12.50;99.90;;;;;;5046565;28;20043;-79
2021/09/29 05:36:00;;;;;;;7.07;3.90;;;12.50;99.90;;;;;;5032053;28;20040;-79
2021/09/29 05:38:26;;;;;;;6.75;3.50;;;12.50;99.90;;;;;;5043684;28;20397;-79
2021/09/29 05:40:53;;;;;;;6.68;3.15;;;12.50;99.90;;;;;;5048588;28;20055;-80
2021/09/29 05:43:19;;;;;;;11.55;4.82;;;12.50;99.90;;;;;;5029346;28;20048;-79
2021/09/29 05:45:46;;;;;;;7.40;3.72;;;12.50;99.90;;;;;;5047785;28;20036;-79
2021/09/29 05:48:12;;;;;;;7.32;4.07;;;12.50;99.90;;;;;;5030175;28;20040;-80
2021/09/29 05:50:38;;;;;;;6.38;3.45;;;12.50;99.90;;;;;;5024837;28;20773;-79
2021/09/29 05:53:05;;;;;;;6.50;3.65;;;12.40;99.90;;;;;;5015717;28;20048;-79
2021/09/29 05:55:31;;;;;;;10.02;4.00;;;12.40;99.90;;;;;;5027725;28;20059;-79
2021/09/29 05:57:58;;;;;;;7.05;3.72;;;12.40;99.90;;;;;;5072977;28;20035;-78
2021/09/29 06:00:24;;;;;;;7.82;3.45;;;12.40;99.90;;;;;;5041650;28;20052;-78
2021/09/29 06:02:50;;;;;;;7.05;3.38;;;12.40;99.90;;;;;;5048265;28;20051;-78
2021/09/29 06:05:18;;;;;;;8.82;3.50;;;12.40;99.90;;;;;;5023645;28;20063;-77
2021/09/29 06:07:44;;;;;;;8.05;3.35;;;12.40;99.90;;;;;;5029673;28;20044;-78
2021/09/29 06:10:11;;;;;;;9.38;3.70;;;12.40;99.90;;;;;;5027382;28;20040;-77
2021/09/29 06:12:38;;;;;;;6.53;3.63;;;12.40;99.90;;;;;;5043452;28;20036;-77
2021/09/29 06:15:05;;;;;;;5.90;3.05;;;12.50;99.90;;;;;;5044895;28;20036;-77
2021/09/29 06:20:06;;;;;;;11.05;4.82;;;12.50;99.90;;;;;;5041072;28;20039;-77
2021/09/29 06:22:32;;;;;;;7.68;3.88;;;12.50;99.90;;;;;;5043922;28;20048;-76
2021/09/29 06:24:59;;;;;;;6.78;3.80;;;12.50;99.90;;;;;;5041397;28;20055;-77
2021/09/29 06:27:26;;;;;;;7.93;3.22;;;12.60;99.90;;;;;;5045735;28;20043;-76
2021/09/29 06:29:52;;;;;;;7.65;3.58;;;12.60;99.90;;;;;;5031380;28;20048;-77
2021/09/29 06:32:19;;;;;;;9.18;3.92;;;12.60;99.90;;;;;;5055485;28;20048;-76
2021/09/29 06:34:45;;;;;;;7.75;3.38;;;12.60;99.90;;;;;;5074452;28;20038;-77
2021/09/29 06:37:12;;;;;;;8.90;3.65;;;12.60;99.90;;;;;;5040799;28;20036;-77
2021/09/29 06:39:38;;;;;;;6.47;3.05;;;12.60;99.90;;;;;;5023984;28;20053;-76
2021/09/29 06:42:04;;;;;;;9.13;4.10;;;12.60;99.90;;;;;;5023569;28;20056;-76
2021/09/29 06:44:31;;;;;;;5.47;2.72;;;12.60;99.90;;;;;;5044910;28;20049;-76
2021/09/29 06:47:01;;;;;;;5.10;2.38;;;12.60;99.90;;;;;;5045772;28;20044;-76
2021/09/29 06:49:28;;;;;;;7.22;3.40;;;12.60;99.90;;;;;;5060149;28;20037;-76
2021/09/29 06:51:55;;;;;;;10.13;3.75;;;12.60;99.90;;;;;;5055037;28;20036;-76
2021/09/29 06:54:21;;;;;;;7.55;3.63;;;12.70;99.90;;;;;;5021804;28;20048;-76
2021/09/29 06:56:48;;;;;;;8.13;3.28;;;12.70;99.90;;;;;;5012575;28;20489;-77
2021/09/29 06:59:14;;;;;;;9.60;3.97;;;12.70;99.90;;;;;;5055796;28;20048;-76
2021/09/29 07:01:41;;;;;;;9.65;3.97;;;12.70;99.90;;;;;;5057844;28;20404;-77
2021/09/29 07:04:07;;;;;;;13.93;5.38;;;12.70;99.90;;;;;;5041858;28;20047;-77
2021/09/29 07:06:33;;;;;;;10.90;4.55;;;12.70;99.90;;;;;;5012426;28;20052;-76
2021/09/29 07:09:00;;;;;;;8.20;3.63;;;12.70;99.90;;;;;;5052743;28;20035;-79
2021/09/29 07:11:26;;;;;;;7.72;3.90;;;12.80;99.90;;;;;;5036261;28;20045;-80
2021/09/29 07:13:53;;;;;;;9.25;6.72;;;12.80;99.90;;;;;;5046938;28;20033;-75
2021/09/29 07:16:19;;;;;;;11.88;7.40;;;12.80;99.90;;;;;;5031690;28;20040;-76
2021/09/29 07:18:46;;;;;;;15.90;8.35;;;12.80;99.90;;;;;;5059320;28;20037;-76
2021/09/29 07:21:12;;;;;;;10.13;6.85;;;12.80;99.90;;;;;;5058608;28;20035;-77
2021/09/29 07:23:38;;;;;;;10.10;5.35;;;12.80;99.90;;;;;;5012399;28;20867;-78
2021/09/29 07:26:05;;;;;;;7.55;4.32;;;12.80;99.90;;;;;;5028697;28;20049;-77
2021/09/29 07:28:31;;;;;;;10.38;3.55;;;12.80;99.90;;;;;;5042376;28;20037;-77
2021/09/29 07:30:58;;;;;;;8.50;3.95;;;12.90;99.90;;;;;;5043795;28;20029;-76
2021/09/29 07:33:24;;;;;;;7.50;3.83;;;12.80;99.90;;;;;;5056338;28;20044;-76
2021/09/29 07:35:51;;;;;;;9.23;3.53;;;12.80;99.90;;;;;;5030391;28;20059;-78
2021/09/29 07:38:18;;;;;;;10.23;3.35;;;12.80;99.90;;;;;;5038905;28;20485;-76
2021/09/29 07:40:45;;;;;;;6.32;3.58;;;12.80;99.90;;;;;;5042741;28;20045;-78
2021/09/29 07:43:11;;;;;;;6.72;3.75;;;12.90;99.90;;;;;;5057283;28;20063;-78
2021/09/29 07:45:38;;;;;;;10.05;3.00;;;12.90;99.90;;;;;;5022745;28;20041;-76
2021/09/29 07:48:04;;;;;;;5.75;2.85;;;12.90;99.90;;;;;;5055165;28;20400;-76
2021/09/29 07:50:31;;;;;;;6.78;2.88;;;12.90;99.90;;;;;;5057262;28;20366;-76
2021/09/29 07:52:57;;;;;;;12.05;5.70;;;12.90;99.90;;;;;;5043902;28;20048;-76
2021/09/29 07:55:24;;;;;;;13.02;6.70;;;12.90;99.90;;;;;;5030964;28;20111;-77
2021/09/29 07:57:50;;;;;;;9.52;4.65;;;12.90;99.90;;;;;;5050761;28;20051;-76
2021/09/29 08:00:18;;;;;;;5.75;2.75;;;12.90;99.90;;;;;;5029841;28;20045;-76
2021/09/29 08:02:45;;;;;;;6.30;2.60;;;12.90;99.90;;;;;;5042473;28;20635;-76
2021/09/29 08:05:14;;;;;;;5.57;2.30;;;13.00;99.90;;;;;;5056895;28;20028;-77
2021/09/29 08:07:41;;;;;;;7.38;2.55;;;13.00;99.90;;;;;;5056335;28;20049;-77
2021/09/29 08:10:09;;;;;;;3.92;2.20;;;12.90;99.90;;;;;;5055786;28;20394;-76
2021/09/29 08:12:35;;;;;;;5.13;2.30;;;12.90;99.90;;;;;;5012581;28;20049;-77
2021/09/29 08:15:02;;;;;;;3.97;1.75;;;13.00;99.90;;;;;;5059812;28;20041;-77
2021/09/29 08:17:29;;;;;;;3.88;1.98;;;13.00;99.90;;;;;;5053641;28;20648;-77
2021/09/29 08:19:55;;;;;;;6.05;2.40;;;13.00;99.90;;;;;;5043810;28;20055;-76
2021/09/29 08:22:22;;;;;;;4.57;2.85;;;13.00;99.90;;;;;;5056307;28;20044;-76
2021/09/29 08:25:34;;;;;;;6.53;2.20;;;13.10;99.90;;;;;;5025487;28;20044;-77
2021/09/29 08:27:55;;;;;;;4.97;2.42;;;13.20;99.90;;;;;;5055468;28;20040;-76
2021/09/29 08:30:47;;;;;;;4.07;2.95;;;13.20;99.90;;;;;;5059320;28;20041;-76
2021/09/29 08:33:20;;;;;;;5.15;3.05;;;13.30;99.90;;;;;;5039938;28;20615;-76
2021/09/29 08:38:25;;;;;;;15.20;11.18;;;13.30;99.90;;;;;;5059947;28;20148;-76
2021/09/29 08:41:18;;;;;;;8.15;5.03;;;13.40;99.90;;;;;;5029705;28;20068;-77
2021/09/29 08:43:50;;;;;;;7.68;3.75;;;13.40;99.90;;;;;;5036928;28;20599;-78
2021/09/29 08:49:09;;;;;;;7.93;3.63;;;13.40;99.90;;;;;;5055569;28;20036;-77
2021/09/29 08:54:14;;;;;;;4.65;3.70;;;13.40;99.90;;;;;;5041696;28;20404;-78
2021/09/29 09:16:11;;;;;;;7.88;5.20;;;13.40;99.90;;;;;;5058189;28;20043;-76
2021/09/29 09:18:50;;;;;;;6.03;5.40;;;13.50;99.90;;;;;;5054324;28;21540;-77
2021/09/29 09:21:19;;;;;;;6.45;4.60;;;13.50;99.90;;;;;;5051036;28;20048;-77
2021/09/29 09:23:46;;;;;;;5.75;4.63;;;13.50;99.90;;;;;;5049720;28;20048;-76
2021/09/29 09:26:24;;;;;;;6.65;5.45;;;13.50;99.90;;;;;;5045293;28;20033;-77
2021/09/29 09:29:14;;;;;;;6.88;5.88;;;13.50;99.90;;;;;;5056019;28;20024;-77
2021/09/29 09:31:42;;;;;;;8.20;5.68;;;13.50;99.90;;;;;;5054963;28;20037;-76
2021/09/29 09:34:09;;;;;;;8.25;5.55;;;13.50;99.90;;;;;;5051237;28;20033;-76
2021/09/29 09:36:39;;;;;;;5.32;4.82;;;13.40;99.90;;;;;;5059572;28;20053;-77
2021/09/29 09:39:25;;;;;;;5.25;4.70;;;13.40;99.90;;;;;;5063996;28;20032;-76
2021/09/29 09:41:56;;;;;;;5.43;4.90;;;13.40;99.90;;;;;;5050278;28;20043;-77
2021/09/29 09:44:29;;;;;;;7.00;6.38;;;13.30;99.90;;;;;;5080968;28;20036;-77
2021/09/29 09:47:06;;;;;;;6.95;5.20;;;13.20;99.90;;;;;;5064924;28;20035;-76
2021/09/29 09:49:46;;;;;;;5.20;4.55;;;13.10;99.90;;;;;;5059739;28;21200;-76
2021/09/29 09:52:25;;;;;;;4.95;4.55;;;13.10;99.90;;;;;;5075695;28;20043;-76
2021/09/29 09:54:51;;;;;;;6.25;5.75;;;13.10;99.90;;;;;;5047981;28;20035;-77
2021/09/29 09:57:20;;;;;;;5.28;4.80;;;13.10;99.90;;;;;;5078603;28;20036;-77
2021/09/29 09:59:48;;;;;;;5.97;5.38;;;13.00;99.90;;;;;;5047800;28;20495;-77
2021/09/29 10:02:14;;;;;;;5.82;5.32;;;12.90;99.90;;;;;;5064627;28;20051;-78
2021/09/29 10:04:41;;;;;;;7.20;6.53;;;12.90;99.90;;;;;;5046223;28;20036;-76
2021/09/29 10:07:07;;;;;;;6.75;6.05;;;12.90;99.90;;;;;;5059088;28;20752;-77
2021/09/29 10:09:42;;;;;;;6.97;6.45;;;12.80;99.90;;;;;;5025058;28;20055;-76
2021/09/29 10:28:35;;;;;;;5.03;3.95;;;12.60;99.90;;;;;;5041950;28;20496;-76
2021/09/29 10:33:36;;;;;;;3.83;3.03;;;12.60;99.90;;;;;;5077227;28;20036;-76
2021/09/29 10:46:50;;;;;;;3.97;3.45;;;12.70;99.90;;;;;;5061957;28;20036;-76
2021/09/29 11:30:37;;;;;;;1.30;0.70;;;12.50;99.90;;;;;;5048148;28;20052;-76
2021/09/29 11:33:21;;;;;;;3.03;0.73;;;12.50;99.90;;;;;;5040504;28;20044;-75
2021/09/29 12:11:29;;;;;;;1.30;0.63;;;12.60;99.90;;;;;;5072367;28;20064;-77
2021/09/29 12:14:01;;;;;;;1.80;0.60;;;12.50;99.90;;;;;;5064785;28;20038;-77
2021/09/29 12:16:31;;;;;;;0.95;0.60;;;12.50;99.90;;;;;;5043656;28;20416;-77
2021/09/29 12:19:01;;;;;;;1.85;0.60;;;12.50;99.90;;;;;;5057249;28;20041;-77
2021/09/29 12:21:38;;;;;;;2.50;0.70;;;12.60;99.90;;;;;;5039389;28;20043;-76
2021/09/29 12:24:08;;;;;;;2.28;0.70;;;12.70;99.90;;;;;;5059557;28;20039;-76
2021/09/29 12:26:44;;;;;;;2.28;0.80;;;12.80;99.90;;;;;;5059405;28;20035;-79
2021/09/29 12:29:25;;;;;;;2.00;0.40;;;12.80;99.90;;;;;;5039044;28;20404;-79
2021/09/29 12:35:08;;;;;;;0.95;0.50;;;12.60;99.90;;;;;;5040296;28;20052;-75
2021/09/29 12:37:11;;;;;;;2.05;0.50;;;12.50;99.90;;;;;;5045331;28;20052;-76
2021/09/29 12:39:39;;;;;;;1.48;0.70;;;12.50;99.90;;;;;;5064115;28;20417;-76
2021/09/29 12:42:06;;;;;;;2.78;0.50;;;12.50;99.90;;;;;;5064990;28;20043;-76
2021/09/29 12:44:33;;;;;;;1.58;0.50;;;12.50;99.90;;;;;;5046926;28;20039;-75
2021/09/29 12:47:17;;;;;;;1.63;0.43;;;12.60;99.90;;;;;;5074786;28;20047;-76
2021/09/29 12:49:43;;;;;;;1.35;0.40;;;12.60;99.90;;;;;;5079003;28;20039;-76
2021/09/29 12:52:10;;;;;;;1.60;0.57;;;12.60;99.90;;;;;;5048151;28;20037;-76
2021/09/29 12:54:46;;;;;;;2.05;0.50;;;12.60;99.90;;;;;;5041996;28;20055;-77
2021/09/29 12:57:13;;;;;;;2.80;0.30;;;12.60;99.90;;;;;;5041308;28;20821;-78
2021/09/29 12:59:39;;;;;;;1.30;0.50;;;12.60;99.90;;;;;;5017860;28;20044;-78
2021/09/29 13:02:06;;;;;;;1.27;0.43;;;12.60;99.90;;;;;;5029063;28;20052;-77
2021/09/29 13:04:32;;;;;;;0.90;0.50;;;12.60;99.90;;;;;;5062078;28;20064;-77
2021/09/29 13:06:58;;;;;;;1.40;0.50;;;12.60;99.90;;;;;;5047768;28;20043;-78
2021/09/29 13:09:25;;;;;;;1.45;0.50;;;12.50;99.90;;;;;;5058837;28;20047;-77
2021/09/29 13:11:51;;;;;;;1.77;0.50;;;12.60;99.90;;;;;;5050366;28;20035;-78
2021/09/29 13:14:18;;;;;;;2.03;0.85;;;12.70;99.90;;;;;;5026663;28;20048;-77
2021/09/29 13:16:44;;;;;;;1.92;0.90;;;12.90;99.90;;;;;;5026737;28;20404;-78
2021/09/29 13:19:16;;;;;;;2.22;0.70;;;13.10;99.90;;;;;;5064876;28;20040;-77
2021/09/29 13:38:12;;;;;;;5.25;1.35;;;14.60;99.90;;;;;;5029385;28;20571;-81
2021/09/29 13:40:44;;;;;;;3.55;0.80;;;14.70;99.90;;;;;;5023077;28;20056;-77
2021/09/29 13:43:10;;;;;;;6.25;2.05;;;14.80;99.90;;;;;;5079592;28;20500;-77
2021/09/29 13:45:38;;;;;;;5.57;3.28;;;14.80;99.90;;;;;;5056321;28;20032;-76
2021/09/29 13:48:04;;;;;;;4.60;1.38;;;14.70;99.90;;;;;;5058608;28;20425;-76
2021/09/29 13:50:31;;;;;;;6.13;0.70;;;14.60;99.90;;;;;;5040663;28;20032;-76
2021/09/29 13:52:59;;;;;;;3.80;0.40;;;14.50;99.90;;;;;;5039504;28;20035;-76
2021/09/29 13:55:29;;;;;;;3.17;0.45;;;14.40;99.90;;;;;;5043552;28;20051;-76
2021/09/29 14:30:58;;;;;;;1.35;0.25;;;14.80;99.90;;;;;;5064569;28;20045;-77
2021/09/29 14:33:29;;;;;;;4.35;0.30;;;14.80;99.90;;;;;;5043483;28;20044;-77
2021/09/29 14:35:56;;;;;;;2.83;0.40;;;14.80;99.90;;;;;;5024101;28;20045;-77
2021/09/29 14:38:23;;;;;;;1.95;0.30;;;14.80;99.90;;;;;;5047104;28;20029;-77
2021/09/29 14:40:50;;;;;;;2.78;0.40;;;14.90;99.90;;;;;;5032012;28;20044;-76
2021/09/29 14:43:18;;;;;;;4.07;0.40;;;14.90;99.90;;;;;;5058650;28;20481;-76
2021/09/29 14:45:45;;;;;;;4.05;0.30;;;14.80;99.90;;;;;;5041838;28;20043;-77
2021/09/29 14:48:12;;;;;;;1.02;0.20;;;14.50;99.90;;;;;;5042599;28;20381;-78
2021/09/29 14:50:38;;;;;;;2.53;0.30;;;14.20;99.90;;;;;;5055320;28;20036;-77
2021/09/29 14:53:05;;;;;;;1.33;0.20;;;13.80;99.90;;;;;;5059150;28;20033;-76
2021/09/29 14:55:33;;;;;;;1.08;0.20;;;13.40;99.90;;;;;;5032641;28;20053;-77
2021/09/29 14:58:00;;;;;;;1.65;0.20;;;13.00;99.90;;;;;;5051380;28;20032;-76
2021/09/29 15:00:30;;;;;;;1.92;0.30;;;12.80;99.90;;;;;;5072076;28;20362;-77
2021/09/29 15:02:58;;;;;;;2.45;0.30;;;12.60;99.90;;;;;;5057811;28;20036;-76
2021/09/29 15:05:26;;;;;;;4.10;0.30;;;12.40;99.90;;;;;;5028890;28;20048;-75
2021/09/29 15:07:53;;;;;;;7.47;0.60;;;12.20;99.90;;;;;;5095148;28;20023;-77
2021/09/29 15:10:20;;;;;;;4.55;0.30;;;11.90;99.90;;;;;;5042805;28;20361;-76
2021/09/29 15:12:46;;;;;;;3.33;0.30;;;11.70;99.90;;;;;;5059376;28;20487;-76
2021/09/29 15:15:28;;;;;;;1.45;0.20;;;11.60;99.90;;;;;;5058222;28;20045;-76
2021/09/29 15:18:03;;;;;;;3.65;0.40;;;11.80;99.90;;;;;;5040364;28;20040;-76
2021/09/29 15:23:17;;;;;;;4.13;0.40;;;11.90;99.90;;;;;;5040668;28;20048;-76
2021/09/29 15:50:22;;;;;;;1.48;0.40;;;11.30;99.90;;;;;;5067073;28;20040;-75
2021/09/29 15:53:03;;;;;;;3.45;0.30;;;11.30;99.90;;;;;;5083656;28;20048;-75
2021/09/29 15:55:41;;;;;;;2.63;0.40;;;11.30;99.90;;;;;;5068040;28;20028;-76
2021/09/29 16:03:17;;;;;;;2.80;0.20;;;11.10;99.90;;;;;;5065778;28;20039;-76
2021/09/29 16:08:37;;;;;;;3.60;0.63;;;11.10;99.90;;;;;;5045280;28;20157;-76
2021/09/29 16:13:57;;;;;;;3.50;0.50;;;11.10;99.90;;;;;;5062238;28;20054;-75
2021/09/29 16:22:11;;;;;;;19.05;8.98;;;11.00;99.90;;;;;;5080497;28;20503;-76
2021/09/29 16:30:15;;;;;;;1.60;0.40;;;10.80;99.90;;;;;;5065530;28;20047;-76
2021/09/29 16:33:06;;;;;;;3.03;0.40;;;10.80;99.90;;;;;;5079226;28;20043;-74
2021/09/29 16:35:30;;;;;;;1.73;0.30;;;10.80;99.90;;;;;;5076867;28;20050;-76
2021/09/29 16:37:59;;;;;;;3.88;1.10;;;10.70;99.90;;;;;;5043780;28;20040;-78
2021/09/29 16:40:25;;;;;;;6.10;0.77;;;10.70;99.90;;;;;;5038741;28;20067;-77
2021/09/29 16:42:54;;;;;;;4.35;0.60;;;10.70;99.90;;;;;;5040604;28;20110;-79
2021/09/29 16:45:25;;;;;;;3.00;0.38;;;10.70;99.90;;;;;;5065391;28;20484;-75
2021/09/29 16:47:53;;;;;;;4.65;0.30;;;10.70;99.90;;;;;;5042814;28;20028;-79
2021/09/29 16:50:22;;;;;;;2.55;0.30;;;10.70;99.90;;;;;;5013911;28;20047;-78
2021/09/29 16:52:53;;;;;;;1.38;0.38;;;10.70;99.90;;;;;;5044574;28;20040;-79
2021/09/29 16:55:28;;;;;;;5.97;0.40;;;10.60;99.90;;;;;;5067224;28;20040;-80